< < Back
Terminal Aerodrome Forecast


Current Version              Previous Versions:   1  2  3  4  5  6  7  8  9  

Terminal Aerodrome Forecast

272
FTUS44 KMOB 182300
TAFMOB
TAF
KMOB 182338Z 1900/1924 36012KT P6SM VCFG FEW012 SCT017 BKN035
      TEMPO 1900/1904 BKN017
     FM190400 35007KT P6SM BKN015
     FM190600 36008KT P6SM SCT015 BKN045 BKN200
     FM191400 36011KT P6SM SCT025 SCT250=

Latest METAR

149
SAUS80 KWBC 190100
MTRMOB
METAR KMOB 190056Z 01013KT 10SM SCT019 BKN026 OVC034 15/13 A3008 RMK AO2
SLP184 T01500128


USA.gov is the U.S. government's official web portal to all federal, state and local government web resources and services.